createdAt,value
2018-09-10T16:31:19.781Z,2.50
2018-09-10T16:32:19.775Z,2.40
2018-09-10T16:33:19.738Z,5.60
2018-09-10T16:34:19.725Z,5.20
2018-09-10T16:35:19.704Z,6.20
2018-09-10T16:36:19.695Z,49.60
2018-09-10T16:37:19.696Z,31.50
2018-09-10T16:38:19.718Z,9.10
2018-09-10T16:39:19.662Z,4.80
2018-09-10T16:40:19.637Z,3.60
2018-09-10T16:41:19.626Z,3.50
2018-09-10T16:42:19.621Z,3.20
2018-09-10T16:43:19.601Z,2.80
2018-09-10T16:44:19.585Z,2.90
2018-09-10T16:45:19.572Z,2.60
2018-09-10T16:46:19.566Z,3.40
2018-09-10T16:47:29.915Z,2.80
2018-09-10T16:48:19.583Z,2.90
2018-09-10T16:49:19.559Z,2.90
2018-09-10T16:50:19.559Z,3.00
2018-09-10T16:51:19.552Z,2.80
2018-09-10T16:52:19.557Z,3.10
2018-09-10T16:53:19.528Z,2.90
2018-09-10T16:54:19.602Z,2.90
2018-09-10T16:55:19.452Z,2.90
2018-09-10T16:56:19.531Z,2.80
2018-09-10T16:57:19.440Z,3.10
2018-09-10T16:58:19.402Z,3.10
2018-09-10T16:59:19.408Z,2.90
2018-09-10T17:00:19.387Z,3.30
2018-09-10T17:01:19.391Z,2.60
2018-09-10T17:02:19.394Z,2.90
2018-09-10T17:03:19.348Z,2.80
2018-09-10T17:04:19.328Z,2.90
2018-09-10T17:05:19.334Z,2.90
2018-09-10T17:06:19.326Z,3.20
2018-09-10T17:07:19.378Z,2.90
2018-09-10T17:08:19.289Z,3.00
2018-09-10T17:09:29.432Z,3.00
2018-09-10T17:10:19.245Z,2.80
2018-09-10T17:11:19.243Z,2.90
2018-09-10T17:12:19.310Z,2.90
2018-09-10T17:13:19.239Z,3.10
2018-09-10T17:14:19.203Z,2.80
2018-09-10T17:15:19.186Z,2.70
2018-09-10T17:16:19.190Z,2.80
2018-09-10T17:17:19.182Z,3.00
2018-09-10T17:18:19.225Z,2.90
2018-09-10T17:19:19.130Z,2.60
2018-09-10T17:20:19.138Z,2.70
2018-09-10T17:21:19.142Z,3.10
2018-09-10T17:22:19.112Z,3.40
2018-09-10T17:23:19.101Z,2.80
2018-09-10T17:24:19.077Z,2.60
2018-09-10T17:25:19.081Z,2.70
2018-09-10T17:26:19.057Z,3.10
2018-09-10T17:27:19.096Z,3.00
2018-09-10T17:28:19.063Z,2.70
2018-09-10T17:29:19.025Z,2.70
2018-09-10T17:30:19.035Z,3.10
2018-09-10T17:31:28.464Z,3.00
2018-09-10T17:32:18.972Z,3.00
2018-09-10T17:33:18.948Z,2.80
2018-09-10T17:34:18.934Z,2.80
2018-09-10T17:35:18.919Z,3.10
2018-09-10T17:36:18.926Z,2.70
2018-09-10T17:37:18.950Z,2.80
2018-09-10T17:38:18.905Z,3.10
2018-09-10T17:39:18.892Z,2.80
2018-09-10T17:40:18.899Z,3.00
2018-09-10T17:41:18.860Z,3.30
2018-09-10T17:42:18.865Z,3.30
2018-09-10T17:43:18.885Z,3.40
2018-09-10T17:44:18.837Z,3.50
2018-09-10T17:45:18.888Z,3.60
2018-09-10T17:46:18.849Z,3.30
2018-09-10T17:47:18.920Z,2.80
2018-09-10T17:48:18.850Z,2.80
2018-09-10T17:49:18.819Z,3.00
2018-09-10T17:50:18.810Z,3.10
2018-09-10T17:51:18.730Z,3.10
2018-09-10T17:52:18.823Z,3.00
2018-09-10T17:53:18.730Z,3.10
2018-09-10T17:54:18.680Z,2.70
2018-09-10T17:55:18.655Z,2.90
2018-09-10T17:56:18.652Z,2.80
2018-09-10T17:57:18.638Z,2.90
2018-09-10T17:58:18.645Z,3.30
2018-09-10T17:59:18.631Z,2.70
2018-09-10T18:00:18.601Z,2.70
2018-09-10T18:01:18.585Z,2.70
2018-09-10T18:02:18.600Z,3.10
2018-09-10T18:03:18.598Z,2.90
2018-09-10T18:04:18.579Z,3.40
2018-09-10T18:05:18.559Z,3.20
2018-09-10T18:06:18.552Z,3.20
2018-09-10T18:07:18.500Z,3.40
2018-09-10T18:08:18.523Z,3.30
2018-09-10T18:09:18.558Z,3.20
2018-09-10T18:10:18.494Z,3.00
2018-09-10T18:11:18.437Z,3.10
2018-09-10T18:12:18.444Z,3.40
2018-09-10T18:13:18.577Z,3.10
2018-09-10T18:14:18.420Z,3.20
2018-09-10T18:15:18.426Z,3.50
2018-09-10T18:16:18.378Z,3.40
2018-09-10T18:17:18.387Z,3.60
2018-09-10T18:18:18.384Z,3.90
2018-09-10T18:19:18.341Z,4.10
2018-09-10T18:20:18.397Z,3.70
2018-09-10T18:21:18.312Z,3.80
2018-09-10T18:22:18.319Z,4.00
2018-09-10T18:23:18.296Z,3.70
2018-09-10T18:24:18.287Z,4.30
2018-09-10T18:25:18.294Z,4.10
2018-09-10T18:26:18.236Z,4.10
2018-09-10T18:27:18.238Z,3.70
2018-09-10T18:28:18.237Z,4.10
2018-09-10T18:29:18.207Z,3.90
2018-09-10T18:30:18.210Z,4.50
2018-09-10T18:31:18.191Z,4.10
2018-09-10T18:32:18.166Z,4.70
2018-09-10T18:33:18.179Z,4.70
2018-09-10T18:34:18.192Z,4.30
2018-09-10T18:35:18.138Z,4.50
2018-09-10T18:36:18.139Z,3.80
2018-09-10T18:37:18.163Z,3.30
2018-09-10T18:38:18.151Z,3.60
2018-09-10T18:39:18.122Z,3.40
2018-09-10T18:40:18.169Z,3.30
2018-09-10T18:41:18.112Z,3.60
2018-09-10T18:42:18.084Z,3.30
2018-09-10T18:43:17.998Z,3.60
2018-09-10T18:44:17.976Z,3.30
2018-09-10T18:45:17.990Z,3.40
2018-09-10T18:46:17.941Z,3.00
2018-09-10T18:47:17.939Z,3.20
2018-09-10T18:48:17.942Z,3.50
2018-09-10T18:49:17.933Z,3.40
2018-09-10T18:50:17.962Z,3.50
2018-09-10T18:51:17.880Z,3.40
2018-09-10T18:52:17.877Z,3.70
2018-09-10T18:53:17.899Z,3.00
2018-09-10T18:54:17.867Z,3.50
2018-09-10T18:55:17.830Z,3.60
2018-09-10T18:56:17.826Z,3.30
2018-09-10T18:57:17.802Z,3.30
2018-09-10T18:58:17.768Z,3.30
2018-09-10T18:59:17.803Z,3.50
2018-09-10T19:00:17.769Z,3.40
2018-09-10T19:01:17.911Z,3.60
2018-09-10T19:02:17.733Z,3.40
2018-09-10T19:03:17.749Z,3.60
2018-09-10T19:04:17.677Z,3.60
2018-09-10T19:05:17.670Z,3.70
2018-09-10T19:06:17.673Z,3.30
2018-09-10T19:07:17.635Z,3.40
2018-09-10T19:08:17.666Z,3.60
2018-09-10T19:09:17.628Z,4.40
2018-09-10T19:10:17.604Z,3.80
2018-09-10T19:11:17.610Z,3.80
2018-09-10T19:12:17.560Z,3.60
2018-09-10T19:13:17.602Z,3.50
2018-09-10T19:14:17.648Z,3.60
2018-09-10T19:15:17.559Z,3.50
2018-09-10T19:16:17.538Z,3.40
2018-09-10T19:17:17.516Z,3.30
2018-09-10T19:18:17.493Z,3.40
2018-09-10T19:19:17.461Z,3.80
2018-09-10T19:20:17.472Z,3.60
2018-09-10T19:21:17.439Z,4.00
2018-09-10T19:22:17.424Z,3.60
2018-09-10T19:23:17.406Z,4.30
2018-09-10T19:24:17.434Z,3.60
2018-09-10T19:25:17.436Z,3.90
2018-09-10T19:26:17.457Z,3.20
2018-09-10T19:27:17.377Z,3.80
2018-09-10T19:28:17.378Z,4.00
2018-09-10T19:29:17.388Z,3.80
2018-09-10T19:30:17.372Z,4.10
2018-09-10T19:31:17.343Z,3.80
2018-09-10T19:32:17.274Z,3.90
2018-09-10T19:33:17.252Z,4.20
2018-09-10T19:34:27.505Z,4.10
2018-09-10T19:35:17.188Z,3.80
2018-09-10T19:36:17.182Z,4.10
2018-09-10T19:37:17.206Z,4.20
2018-09-10T19:38:17.145Z,4.10
2018-09-10T19:39:17.138Z,4.40
2018-09-10T19:40:17.134Z,4.40
2018-09-10T19:41:17.180Z,3.80
2018-09-10T19:42:24.654Z,3.70
2018-09-10T19:43:17.069Z,4.30
2018-09-10T19:44:17.052Z,3.80
2018-09-10T19:45:17.038Z,3.70
2018-09-10T19:46:17.026Z,4.30
2018-09-10T19:47:17.014Z,3.90
2018-09-10T19:48:17.012Z,4.20
2018-09-10T19:49:17.008Z,4.00
2018-09-10T19:50:17.084Z,4.10
2018-09-10T19:51:16.947Z,3.80
2018-09-10T19:52:17.060Z,4.40
2018-09-10T19:53:28.069Z,4.80
2018-09-10T19:54:16.923Z,4.20
2018-09-10T19:55:16.877Z,5.20
2018-09-10T19:56:16.863Z,4.50
2018-09-10T19:57:16.855Z,4.30
2018-09-10T19:58:16.859Z,4.40
2018-09-10T19:59:16.839Z,4.70
2018-09-10T20:00:16.797Z,4.60
2018-09-10T20:01:16.785Z,4.40
2018-09-10T20:02:16.880Z,4.50
2018-09-10T20:03:16.773Z,4.60
2018-09-10T20:04:16.774Z,5.00
2018-09-10T20:05:16.749Z,4.40
2018-09-10T20:06:16.720Z,4.30
2018-09-10T20:07:16.693Z,4.40
2018-09-10T20:08:16.676Z,4.50
2018-09-10T20:09:16.677Z,4.50
2018-09-10T20:10:16.651Z,4.70
2018-09-10T20:11:16.627Z,4.60
2018-09-10T20:12:16.625Z,4.40
2018-09-10T20:13:16.623Z,4.30
2018-09-10T20:14:16.684Z,4.50
2018-09-10T20:15:16.692Z,4.00
2018-09-10T20:16:16.601Z,3.90
2018-09-10T20:17:16.580Z,4.20
2018-09-10T20:18:16.518Z,4.20
2018-09-10T20:19:16.496Z,3.90
2018-09-10T20:20:16.499Z,4.40
2018-09-10T20:21:16.472Z,4.40
2018-09-10T20:22:16.454Z,4.90
2018-09-10T20:23:16.442Z,4.70
2018-09-10T20:24:16.461Z,3.90
2018-09-10T20:25:16.418Z,4.40
2018-09-10T20:26:27.108Z,5.00
2018-09-10T20:27:16.370Z,4.80
2018-09-10T20:28:16.354Z,4.00
2018-09-10T20:29:16.334Z,4.70
2018-09-10T20:30:16.324Z,4.40
2018-09-10T20:31:16.304Z,4.20
2018-09-10T20:32:16.305Z,5.00
2018-09-10T20:33:16.270Z,4.20
2018-09-10T20:34:16.263Z,4.10
2018-09-10T20:35:16.239Z,4.30
2018-09-10T20:36:16.226Z,4.80
2018-09-10T20:37:16.217Z,4.40
2018-09-10T20:38:16.189Z,4.40
2018-09-10T20:39:16.173Z,4.80
2018-09-10T20:40:16.157Z,4.60
2018-09-10T20:41:16.152Z,5.10
2018-09-10T20:42:16.135Z,4.80
2018-09-10T20:43:16.109Z,4.70
2018-09-10T20:44:16.096Z,4.80
2018-09-10T20:45:16.078Z,5.00
2018-09-10T20:46:16.057Z,5.00
2018-09-10T20:47:25.637Z,4.90
2018-09-10T20:48:16.027Z,5.00
2018-09-10T20:49:16.016Z,5.00
2018-09-10T20:50:15.991Z,4.90
2018-09-10T20:51:15.980Z,4.60
2018-09-10T20:52:16.051Z,4.70
2018-09-10T20:53:15.946Z,4.70
2018-09-10T20:54:15.928Z,4.90
2018-09-10T20:55:15.929Z,4.80
2018-09-10T20:56:15.899Z,5.00
2018-09-10T20:57:15.885Z,5.00
2018-09-10T20:58:15.892Z,5.00
2018-09-10T20:59:15.866Z,5.10
2018-09-10T21:00:15.873Z,5.50
2018-09-10T21:01:15.875Z,4.90
2018-09-10T21:02:15.892Z,4.90
2018-09-10T21:03:15.851Z,4.80
2018-09-10T21:04:15.841Z,5.10
2018-09-10T21:05:15.828Z,5.00
2018-09-10T21:06:15.737Z,5.40
2018-09-10T21:07:15.726Z,5.60
2018-09-10T21:08:15.700Z,4.90
2018-09-10T21:09:15.699Z,5.70
2018-09-10T21:10:15.705Z,5.20
2018-09-10T21:11:15.694Z,5.20
2018-09-10T21:12:15.659Z,5.30
2018-09-10T21:13:15.642Z,5.40
2018-09-10T21:14:15.681Z,5.30
2018-09-10T21:15:15.738Z,5.30
2018-09-10T21:16:15.642Z,5.20
2018-09-10T21:17:15.598Z,5.20
2018-09-10T21:18:15.538Z,5.40
2018-09-10T21:19:15.532Z,5.60
2018-09-10T21:20:15.589Z,5.20
2018-09-10T21:21:15.498Z,4.60
2018-09-10T21:22:15.479Z,4.90
2018-09-10T21:23:15.483Z,5.20
2018-09-10T21:24:15.481Z,5.20
2018-09-10T21:25:15.433Z,5.40
2018-09-10T21:26:15.443Z,5.20
2018-09-10T21:27:15.379Z,5.40
2018-09-10T21:28:15.389Z,5.30
2018-09-10T21:29:15.385Z,5.40
2018-09-10T21:30:15.340Z,5.60
2018-09-10T21:31:25.168Z,5.30
2018-09-10T21:32:15.317Z,5.20
2018-09-10T21:33:15.454Z,5.70
2018-09-10T21:34:15.281Z,5.10
2018-09-10T21:35:15.259Z,5.40
2018-09-10T21:36:15.246Z,5.30
2018-09-10T21:37:15.234Z,5.70
2018-09-10T21:38:15.215Z,5.60
2018-09-10T21:39:15.184Z,5.40
2018-09-10T21:40:15.176Z,5.50
2018-09-10T21:41:15.163Z,5.50
2018-09-10T21:42:15.148Z,6.00
2018-09-10T21:43:15.115Z,6.20
2018-09-10T21:44:15.127Z,5.70
2018-09-10T21:45:15.127Z,5.40
2018-09-10T21:46:15.123Z,5.30
2018-09-10T21:47:15.111Z,5.80
2018-09-10T21:48:15.088Z,6.10
2018-09-10T21:49:15.081Z,5.40
2018-09-10T21:50:15.005Z,6.10
2018-09-10T21:51:15.011Z,5.60
2018-09-10T21:52:15.102Z,5.70
2018-09-10T21:53:25.170Z,5.60
2018-09-10T21:54:14.927Z,5.50
2018-09-10T21:55:14.914Z,5.50
2018-09-10T21:56:14.895Z,5.80
2018-09-10T21:57:15.152Z,6.10
2018-09-10T21:58:15.129Z,6.10
2018-09-10T21:59:14.846Z,5.60
2018-09-10T22:00:14.833Z,5.20
2018-09-10T22:01:14.819Z,6.30
2018-09-10T22:02:14.811Z,6.00
2018-09-10T22:03:14.782Z,5.60
2018-09-10T22:04:14.910Z,5.80
2018-09-10T22:05:14.782Z,6.30
2018-09-10T22:06:14.732Z,6.20
2018-09-10T22:07:14.736Z,5.80
2018-09-10T22:08:14.721Z,5.70
2018-09-10T22:09:14.679Z,5.80
2018-09-10T22:10:14.740Z,5.40
2018-09-10T22:11:14.648Z,5.80
2018-09-10T22:12:14.643Z,6.20
2018-09-10T22:13:14.608Z,6.40
2018-09-10T22:14:24.704Z,5.90
2018-09-10T22:15:14.575Z,5.50
2018-09-10T22:16:14.557Z,6.70
2018-09-10T22:17:14.555Z,6.40
2018-09-10T22:18:14.521Z,6.00
2018-09-10T22:19:14.501Z,5.80
2018-09-10T22:20:14.486Z,5.70
2018-09-10T22:21:14.479Z,5.40
2018-09-10T22:22:14.448Z,6.50
2018-09-10T22:23:14.470Z,6.10
2018-09-10T22:24:14.414Z,5.90
2018-09-10T22:25:14.409Z,6.00
2018-09-10T22:26:14.383Z,6.20
2018-09-10T22:27:14.465Z,6.50
2018-09-10T22:28:14.373Z,6.50
2018-09-10T22:29:14.380Z,6.00
2018-09-10T22:30:14.335Z,6.50
2018-09-10T22:31:14.356Z,5.70
2018-09-10T22:32:14.357Z,6.40
2018-09-10T22:33:14.315Z,6.70
2018-09-10T22:34:14.319Z,6.40
2018-09-10T22:35:14.292Z,6.50
2018-09-10T22:36:23.744Z,6.60
2018-09-10T22:37:14.192Z,6.40
2018-09-10T22:38:14.180Z,6.70
2018-09-10T22:39:14.685Z,6.30
2018-09-10T22:40:14.140Z,6.80
2018-09-10T22:41:14.123Z,6.20
2018-09-10T22:42:14.107Z,6.50
2018-09-10T22:43:14.086Z,6.30
2018-09-10T22:44:14.092Z,6.50
2018-09-10T22:45:14.052Z,6.30
2018-09-10T22:46:14.036Z,6.50
2018-09-10T22:47:14.014Z,6.40
2018-09-10T22:48:14.006Z,6.30
2018-09-10T22:49:13.997Z,6.10
2018-09-10T22:50:13.974Z,6.80
2018-09-10T22:51:13.957Z,7.00
2018-09-10T22:52:13.937Z,7.00
2018-09-10T22:53:13.915Z,7.10
2018-09-10T22:54:13.918Z,6.80
2018-09-10T22:55:13.885Z,7.10
2018-09-10T22:56:13.875Z,6.70
2018-09-10T22:57:24.275Z,6.60
2018-09-10T22:58:13.826Z,6.40
2018-09-10T22:59:13.814Z,6.40
2018-09-10T23:00:13.789Z,6.80
2018-09-10T23:01:13.774Z,6.30
2018-09-10T23:02:13.761Z,6.40
2018-09-10T23:03:13.738Z,6.30
2018-09-10T23:04:13.755Z,6.50
2018-09-10T23:05:13.701Z,6.90
2018-09-10T23:06:13.691Z,6.70
2018-09-10T23:07:13.675Z,6.50
2018-09-10T23:08:13.658Z,6.80
2018-09-10T23:09:13.645Z,6.80
2018-09-10T23:10:13.616Z,6.20
2018-09-10T23:11:13.599Z,6.40
2018-09-10T23:12:13.577Z,6.90
2018-09-10T23:13:13.564Z,6.40
2018-09-10T23:14:13.593Z,6.50
2018-09-10T23:15:13.576Z,6.30
2018-09-10T23:16:24.812Z,6.30
2018-09-10T23:17:13.555Z,6.70
2018-09-10T23:18:13.533Z,6.80
2018-09-10T23:19:22.327Z,6.80
2018-09-10T23:20:13.438Z,6.40
2018-09-10T23:21:13.421Z,6.40
2018-09-10T23:22:13.402Z,6.50
2018-09-10T23:23:13.386Z,6.70
2018-09-10T23:24:13.387Z,6.30
2018-09-10T23:25:13.358Z,7.10
2018-09-10T23:26:13.332Z,6.70
2018-09-10T23:27:13.320Z,6.10
2018-09-10T23:28:13.309Z,6.90
2018-09-10T23:29:13.298Z,6.70
2018-09-10T23:30:13.261Z,6.60
2018-09-10T23:31:13.242Z,7.30
2018-09-10T23:32:13.233Z,6.90
2018-09-10T23:33:13.209Z,6.80
2018-09-10T23:34:13.216Z,6.90
2018-09-10T23:35:13.175Z,7.30
2018-09-10T23:36:13.194Z,6.50
2018-09-10T23:37:13.149Z,7.10
2018-09-10T23:38:13.133Z,6.70
2018-09-10T23:39:13.131Z,6.90
2018-09-10T23:40:13.115Z,7.50
2018-09-10T23:41:23.326Z,7.20
2018-09-10T23:42:13.046Z,7.50
2018-09-10T23:43:13.036Z,7.40
2018-09-10T23:44:13.051Z,7.20
2018-09-10T23:45:13.003Z,7.20
2018-09-10T23:46:12.973Z,7.90
2018-09-10T23:47:12.967Z,7.70
2018-09-10T23:48:12.940Z,7.90
2018-09-10T23:49:12.921Z,7.60
2018-09-10T23:50:12.916Z,7.90
2018-09-10T23:51:12.889Z,8.00
2018-09-10T23:52:12.864Z,7.40
2018-09-10T23:53:12.846Z,7.70
2018-09-10T23:54:12.832Z,7.50
2018-09-10T23:55:12.819Z,8.30
2018-09-10T23:56:12.804Z,7.30
2018-09-10T23:57:12.778Z,7.40
2018-09-10T23:58:12.788Z,8.20
2018-09-10T23:59:12.793Z,8.10
